Time;durP1;ratioP1;P1;durP2;ratioP2;P2;SDS_P1;SDS_P2;PMS_P1;PMS_P2;Temp;Humidity;BMP_temperature;BMP_pressure;BME280_temperature;BME280_humidity;BME280_pressure;Samples;Min_cycle;Max_cycle;Signal;HPM_P1;HPM_P2
2023/11/26 00:00:10;;;;;;;;;;;;;;;;;;5015765;28;19912;-57
2023/11/26 00:02:37;;;;;;;;;;;;;;;;;;5033206;28;19917;-57
2023/11/26 00:05:03;;;;;;;;;;;;;;;;;;5033119;28;20367;-54
2023/11/26 00:07:29;;;;;;;;;;;;;;;;;;5028758;28;20357;-57
2023/11/26 00:09:55;;;;;;;;;;;;;;;;;;5015904;28;19913;-54
2023/11/26 00:12:21;;;;;;;;;;;;;;;;;;5015624;28;19916;-55
2023/11/26 00:14:47;;;;;;;;;;;;;;;;;;5033387;28;19920;-56
2023/11/26 00:17:13;;;;;;;;;;;;;;;;;;5025926;28;20423;-54
2023/11/26 00:19:40;;;;;;;;;;;;;;;;;;5013662;28;20379;-55
2023/11/26 00:22:06;;;;;;;;;;;;;;;;;;5027923;28;19963;-58
2023/11/26 00:24:32;;;;;;;;;;;;;;;;;;5030195;22;19921;-49
2023/11/26 00:26:58;;;;;;;;;;;;;;;;;;5016871;28;19983;-45
2023/11/26 00:29:24;;;;;;;;;;;;;;;;;;4995695;28;19913;-48
2023/11/26 00:31:51;;;;;;;;;;;;;;;;;;5002509;28;19917;-48
2023/11/26 00:34:18;;;;;;;;;;;;;;;;;;5027562;28;19913;-49
2023/11/26 00:36:44;;;;;;;;;;;;;;;;;;5014054;28;19916;-48
2023/11/26 00:39:10;;;;;;;;;;;;;;;;;;5013039;28;19909;-48
2023/11/26 00:41:36;;;;;;;;;;;;;;;;;;5012812;28;20409;-48
2023/11/26 00:44:02;;;;;;;;;;;;;;;;;;4995512;28;19909;-47
2023/11/26 00:46:28;;;;;;;;;;;;;;;;;;4996370;28;20002;-48
2023/11/26 00:48:54;;;;;;;;;;;;;;;;;;5032823;28;19916;-46
2023/11/26 00:51:20;;;;;;;;;;;;;;;;;;5002506;28;19984;-47
2023/11/26 00:53:46;;;;;;;;;;;;;;;;;;5022134;28;19913;-48
2023/11/26 00:56:12;;;;;;;;;;;;;;;;;;4996273;28;19956;-46
2023/11/26 00:58:39;;;;;;;;;;;;;;;;;;5014113;28;20000;-48
2023/11/26 01:01:05;;;;;;;;;;;;;;;;;;5012470;28;20037;-48
2023/11/26 01:03:31;;;;;;;;;;;;;;;;;;5012879;28;19959;-49
2023/11/26 01:05:59;;;;;;;;;;;;;;;;;;4995810;28;20244;-48
2023/11/26 01:08:25;;;;;;;;;;;;;;;;;;5008329;28;19978;-48
2023/11/26 01:10:51;;;;;;;;;;;;;;;;;;4994940;28;19945;-45
2023/11/26 01:13:17;;;;;;;;;;;;;;;;;;4997408;28;19928;-47
2023/11/26 01:15:44;;;;;;;;;;;;;;;;;;5019001;28;20008;-47
2023/11/26 01:18:10;;;;;;;;;;;;;;;;;;4994957;28;19945;-47
2023/11/26 01:20:37;;;;;;;;;;;;;;;;;;4994416;28;19945;-46
2023/11/26 01:23:03;;;;;;;;;;;;;;;;;;4994784;28;19913;-46
2023/11/26 01:25:29;;;;;;;;;;;;;;;;;;5019705;28;20449;-45
2023/11/26 01:27:55;;;;;;;;;;;;;;;;;;5032653;28;20457;-46
2023/11/26 01:30:22;;;;;;;;;;;;;;;;;;5031905;28;19909;-48
2023/11/26 01:32:48;;;;;;;;;;;;;;;;;;5043113;28;19916;-47
2023/11/26 01:35:14;;;;;;;;;;;;;;;;;;5036918;28;19928;-47
2023/11/26 01:37:41;;;;;;;;;;;;;;;;;;5044218;28;19908;-47
2023/11/26 01:40:09;;;;;;;;;;;;;;;;;;5038982;28;20445;-48
2023/11/26 01:42:35;;;;;;;;;;;;;;;;;;5031683;28;20371;-46
2023/11/26 01:45:02;;;;;;;;;;;;;;;;;;5037685;28;19909;-47
2023/11/26 01:47:28;;;;;;;;;;;;;;;;;;5030638;28;19924;-46
2023/11/26 01:49:54;;;;;;;;;;;;;;;;;;5035021;28;19912;-46
2023/11/26 01:52:20;;;;;;;;;;;;;;;;;;5032171;28;19909;-48
2023/11/26 01:54:46;;;;;;;;;;;;;;;;;;5038458;28;20550;-47
2023/11/26 01:57:12;;;;;;;;;;;;;;;;;;5034897;28;19913;-49
2023/11/26 01:59:38;;;;;;;;;;;;;;;;;;5030367;28;19974;-46
2023/11/26 02:02:04;;;;;;;;;;;;;;;;;;5030401;28;19936;-51
2023/11/26 02:04:31;;;;;;;;;;;;;;;;;;5036706;28;19916;-47
2023/11/26 02:06:57;;;;;;;;;;;;;;;;;;5031714;28;19915;-47
2023/11/26 02:09:23;;;;;;;;;;;;;;;;;;5030482;28;19916;-45
2023/11/26 02:11:50;;;;;;;;;;;;;;;;;;5031387;28;19909;-47
2023/11/26 02:14:16;;;;;;;;;;;;;;;;;;5030101;28;19916;-47
2023/11/26 02:16:42;;;;;;;;;;;;;;;;;;5032980;28;19999;-46
2023/11/26 02:19:08;;;;;;;;;;;;;;;;;;5048884;28;20305;-45
2023/11/26 02:21:34;;;;;;;;;;;;;;;;;;5030139;28;19909;-46
2023/11/26 02:24:00;;;;;;;;;;;;;;;;;;5028217;28;20405;-46
2023/11/26 02:26:26;;;;;;;;;;;;;;;;;;5016547;28;20379;-47
2023/11/26 02:28:52;;;;;;;;;;;;;;;;;;4994502;28;19956;-46
2023/11/26 02:31:18;;;;;;;;;;;;;;;;;;4998963;28;19909;-46
2023/11/26 02:33:45;;;;;;;;;;;;;;;;;;5012976;28;20063;-46
2023/11/26 02:36:12;;;;;;;;;;;;;;;;;;4995664;28;19909;-46
2023/11/26 02:38:38;;;;;;;;;;;;;;;;;;5011701;28;19936;-46
2023/11/26 02:41:04;;;;;;;;;;;;;;;;;;4997731;28;20376;-45
2023/11/26 02:43:32;;;;;;;;;;;;;;;;;;5011772;28;19920;-48
2023/11/26 02:45:58;;;;;;;;;;;;;;;;;;5011323;28;20389;-46
2023/11/26 02:48:24;;;;;;;;;;;;;;;;;;4994198;28;19979;-48
2023/11/26 02:50:50;;;;;;;;;;;;;;;;;;4993648;28;19909;-49
2023/11/26 02:53:16;;;;;;;;;;;;;;;;;;5006983;28;19913;-48
2023/11/26 02:55:42;;;;;;;;;;;;;;;;;;5002411;28;19971;-48
2023/11/26 02:58:12;;;;;;;;;;;;;;;;;;4997601;28;19909;-46
2023/11/26 03:00:38;;;;;;;;;;;;;;;;;;4996928;28;20010;-45
2023/11/26 03:03:04;;;;;;;;;;;;;;;;;;4997437;28;19913;-47
2023/11/26 03:05:32;;;;;;;;;;;;;;;;;;4998221;28;19933;-48
2023/11/26 03:08:08;;;;;;;;;;;;;;;;;;5014925;28;19910;-48
2023/11/26 03:13:22;;;;;;;;;;;;;;;;;;5031058;28;19994;-47
2023/11/26 03:15:49;;;;;;;;;;;;;;;;;;5024809;28;19917;-47
2023/11/26 03:18:17;;;;;;;;;;;;;;;;;;5016566;28;20025;-47
2023/11/26 03:20:43;;;;;;;;;;;;;;;;;;5016437;28;19917;-45
2023/11/26 03:23:09;;;;;;;;;;;;;;;;;;5013494;28;19952;-46
2023/11/26 03:25:35;;;;;;;;;;;;;;;;;;5009037;28;19913;-46
2023/11/26 03:28:01;;;;;;;;;;;;;;;;;;5035743;28;19909;-46
2023/11/26 03:30:27;;;;;;;;;;;;;;;;;;5035880;28;19973;-47
2023/11/26 03:32:53;;;;;;;;;;;;;;;;;;5039441;28;19909;-47
2023/11/26 03:35:20;;;;;;;;;;;;;;;;;;5027569;28;19978;-48
2023/11/26 03:37:46;;;;;;;;;;;;;;;;;;5034020;28;19909;-47
2023/11/26 03:40:12;;;;;;;;;;;;;;;;;;5036538;28;19909;-49
2023/11/26 03:42:39;;;;;;;;;;;;;;;;;;5033873;28;19975;-49
2023/11/26 03:45:05;;;;;;;;;;;;;;;;;;5034555;28;20371;-45
2023/11/26 03:47:31;;;;;;;;;;;;;;;;;;5026147;28;20016;-47
2023/11/26 03:49:57;;;;;;;;;;;;;;;;;;5035142;28;20295;-46
2023/11/26 03:52:23;;;;;;;;;;;;;;;;;;5038066;28;19916;-46
2023/11/26 03:54:49;;;;;;;;;;;;;;;;;;5044979;28;19964;-47
2023/11/26 03:57:18;;;;;;;;;;;;;;;;;;5035001;28;19908;-49
2023/11/26 03:59:44;;;;;;;;;;;;;;;;;;5033509;28;19908;-48
2023/11/26 04:02:10;;;;;;;;;;;;;;;;;;5039945;28;20319;-47
2023/11/26 04:04:36;;;;;;;;;;;;;;;;;;5049730;28;20307;-47
2023/11/26 04:07:03;;;;;;;;;;;;;;;;;;5033583;28;19909;-49
2023/11/26 04:09:29;;;;;;;;;;;;;;;;;;5039661;28;19909;-47
2023/11/26 04:11:55;;;;;;;;;;;;;;;;;;5032130;28;19959;-47
2023/11/26 04:14:21;;;;;;;;;;;;;;;;;;5033126;28;19916;-47
2023/11/26 04:16:48;;;;;;;;;;;;;;;;;;5041939;28;20425;-47
2023/11/26 04:19:15;;;;;;;;;;;;;;;;;;5037569;28;19909;-47
2023/11/26 04:21:41;;;;;;;;;;;;;;;;;;5031830;28;19963;-47
2023/11/26 04:24:07;;;;;;;;;;;;;;;;;;5040119;28;19962;-47
2023/11/26 04:26:33;;;;;;;;;;;;;;;;;;5021112;28;19949;-47
2023/11/26 04:29:01;;;;;;;;;;;;;;;;;;5014509;28;19913;-46
2023/11/26 04:31:27;;;;;;;;;;;;;;;;;;5013056;28;19958;-48
2023/11/26 04:33:54;;;;;;;;;;;;;;;;;;5026021;28;19909;-45
2023/11/26 04:36:21;;;;;;;;;;;;;;;;;;5013018;28;19909;-46
2023/11/26 04:38:47;;;;;;;;;;;;;;;;;;4990241;28;20405;-46
2023/11/26 04:41:14;;;;;;;;;;;;;;;;;;5014781;28;19909;-47
2023/11/26 04:43:40;;;;;;;;;;;;;;;;;;5024006;28;20368;-45
2023/11/26 04:46:07;;;;;;;;;;;;;;;;;;5012862;28;20380;-47
2023/11/26 04:48:33;;;;;;;;;;;;;;;;;;5028749;28;19976;-49
2023/11/26 04:51:00;;;;;;;;;;;;;;;;;;5015399;28;19910;-45
2023/11/26 04:53:27;;;;;;;;;;;;;;;;;;5005679;28;19916;-47
2023/11/26 04:55:53;;;;;;;;;;;;;;;;;;5023283;28;20295;-49
2023/11/26 04:58:19;;;;;;;;;;;;;;;;;;5014509;28;20283;-47
2023/11/26 05:00:45;;;;;;;;;;;;;;;;;;5018851;28;20390;-47
2023/11/26 05:03:11;;;;;;;;;;;;;;;;;;5016344;28;20363;-47
2023/11/26 05:05:38;;;;;;;;;;;;;;;;;;5016678;28;20286;-46
2023/11/26 05:08:05;;;;;;;;;;;;;;;;;;5022621;28;20409;-47
2023/11/26 05:10:31;;;;;;;;;;;;;;;;;;5019100;28;20368;-46
2023/11/26 05:12:57;;;;;;;;;;;;;;;;;;5012684;28;19913;-46
2023/11/26 05:15:23;;;;;;;;;;;;;;;;;;5015837;28;19921;-47
2023/11/26 05:17:49;;;;;;;;;;;;;;;;;;5002678;28;19909;-46
2023/11/26 05:20:15;;;;;;;;;;;;;;;;;;5021473;28;19915;-46
2023/11/26 05:22:41;;;;;;;;;;;;;;;;;;5021241;28;19913;-47
2023/11/26 05:25:07;;;;;;;;;;;;;;;;;;5021740;28;19971;-48
2023/11/26 05:27:34;;;;;;;;;;;;;;;;;;5019541;28;20280;-47
2023/11/26 05:30:01;;;;;;;;;;;;;;;;;;5013590;28;19910;-46
2023/11/26 05:32:30;;;;;;;;;;;;;;;;;;5000541;28;19956;-47
2023/11/26 05:34:56;;;;;;;;;;;;;;;;;;5017748;28;20004;-47
2023/11/26 05:37:22;;;;;;;;;;;;;;;;;;4994575;28;19910;-46
2023/11/26 05:39:49;;;;;;;;;;;;;;;;;;5016475;28;20724;-46
2023/11/26 05:42:15;;;;;;;;;;;;;;;;;;5012205;28;19936;-48
2023/11/26 05:44:41;;;;;;;;;;;;;;;;;;5000292;28;19909;-47
2023/11/26 05:47:07;;;;;;;;;;;;;;;;;;5013434;28;19967;-47
2023/11/26 05:49:33;;;;;;;;;;;;;;;;;;5019109;28;19909;-47
2023/11/26 05:51:59;;;;;;;;;;;;;;;;;;5012101;28;19909;-46
2023/11/26 05:54:25;;;;;;;;;;;;;;;;;;5021441;28;19995;-47
2023/11/26 05:56:51;;;;;;;;;;;;;;;;;;5012247;28;20406;-47
2023/11/26 05:59:17;;;;;;;;;;;;;;;;;;4994466;28;20016;-47
2023/11/26 06:01:44;;;;;;;;;;;;;;;;;;4984407;28;19983;-49
2023/11/26 06:04:10;;;;;;;;;;;;;;;;;;5012999;28;19909;-48
2023/11/26 06:06:36;;;;;;;;;;;;;;;;;;4994375;28;19909;-47
2023/11/26 06:09:02;;;;;;;;;;;;;;;;;;5020764;28;19940;-47
2023/11/26 06:11:28;;;;;;;;;;;;;;;;;;4994292;28;19909;-47
2023/11/26 06:13:54;;;;;;;;;;;;;;;;;;5016335;28;20359;-45
2023/11/26 06:16:20;;;;;;;;;;;;;;;;;;5012505;28;20301;-45
2023/11/26 06:18:46;;;;;;;;;;;;;;;;;;4996440;28;20265;-48
2023/11/26 06:21:12;;;;;;;;;;;;;;;;;;5013258;28;19956;-46
2023/11/26 06:23:38;;;;;;;;;;;;;;;;;;4994290;28;19924;-46
2023/11/26 06:26:04;;;;;;;;;;;;;;;;;;5028305;28;19913;-47
2023/11/26 06:28:31;;;;;;;;;;;;;;;;;;5033408;28;19909;-47
2023/11/26 06:30:57;;;;;;;;;;;;;;;;;;5041968;28;19913;-46
2023/11/26 06:33:24;;;;;;;;;;;;;;;;;;5050626;28;19947;-48
2023/11/26 06:35:50;;;;;;;;;;;;;;;;;;5039116;28;20014;-47
2023/11/26 06:38:16;;;;;;;;;;;;;;;;;;5037062;28;19920;-47
2023/11/26 06:40:42;;;;;;;;;;;;;;;;;;5034817;28;19909;-47
2023/11/26 06:43:09;;;;;;;;;;;;;;;;;;5017471;28;20319;-49
2023/11/26 06:45:35;;;;;;;;;;;;;;;;;;5039769;28;20441;-47
2023/11/26 06:48:01;;;;;;;;;;;;;;;;;;5035871;28;20268;-48
2023/11/26 06:50:27;;;;;;;;;;;;;;;;;;5035849;28;20298;-47
2023/11/26 06:52:53;;;;;;;;;;;;;;;;;;5046492;28;19909;-47
2023/11/26 06:55:19;;;;;;;;;;;;;;;;;;5046017;28;20358;-47
2023/11/26 06:57:46;;;;;;;;;;;;;;;;;;5044210;28;19912;-47
2023/11/26 07:00:13;;;;;;;;;;;;;;;;;;5043344;28;20340;-47
2023/11/26 07:02:40;;;;;;;;;;;;;;;;;;5040692;28;19956;-48
2023/11/26 07:05:06;;;;;;;;;;;;;;;;;;5044748;28;19951;-47
2023/11/26 07:07:33;;;;;;;;;;;;;;;;;;5039709;28;19920;-48
2023/11/26 07:09:59;;;;;;;;;;;;;;;;;;5048181;28;19916;-48
2023/11/26 07:12:29;;;;;;;;;;;;;;;;;;5035418;28;19905;-48
2023/11/26 07:14:55;;;;;;;;;;;;;;;;;;5048806;28;19909;-47
2023/11/26 07:17:24;;;;;;;;;;;;;;;;;;5042674;28;19951;-47
2023/11/26 07:19:51;;;;;;;;;;;;;;;;;;5042065;28;20390;-51
2023/11/26 07:22:17;;;;;;;;;;;;;;;;;;5034528;28;19916;-50
2023/11/26 07:24:43;;;;;;;;;;;;;;;;;;5039482;28;19913;-48
2023/11/26 07:27:09;;;;;;;;;;;;;;;;;;4996989;28;19999;-48
2023/11/26 07:29:36;;;;;;;;;;;;;;;;;;5015514;28;19909;-49
2023/11/26 07:32:03;;;;;;;;;;;;;;;;;;5007695;28;20010;-49
2023/11/26 07:34:29;;;;;;;;;;;;;;;;;;5014221;28;19956;-52
2023/11/26 07:36:55;;;;;;;;;;;;;;;;;;5014405;28;19911;-50
2023/11/26 07:39:21;;;;;;;;;;;;;;;;;;5013956;28;19914;-50
2023/11/26 07:41:47;;;;;;;;;;;;;;;;;;5013517;28;20454;-50
2023/11/26 07:44:14;;;;;;;;;;;;;;;;;;5013868;28;19909;-50
2023/11/26 07:46:40;;;;;;;;;;;;;;;;;;5014137;28;20393;-51
2023/11/26 07:49:06;;;;;;;;;;;;;;;;;;4996390;28;19909;-50
2023/11/26 07:51:32;;;;;;;;;;;;;;;;;;5014123;28;19913;-49
2023/11/26 07:53:58;;;;;;;;;;;;;;;;;;5013892;28;19909;-50
2023/11/26 07:56:24;;;;;;;;;;;;;;;;;;5013498;28;19923;-48
2023/11/26 07:58:50;;;;;;;;;;;;;;;;;;5014072;28;19909;-46
2023/11/26 08:01:18;;;;;;;;;;;;;;;;;;4995854;28;19916;-49
2023/11/26 08:03:44;;;;;;;;;;;;;;;;;;4996722;28;19913;-51
2023/11/26 08:06:10;;;;;;;;;;;;;;;;;;5013604;28;20015;-47
2023/11/26 08:08:39;;;;;;;;;;;;;;;;;;5013831;28;20466;-48
2023/11/26 08:11:07;;;;;;;;;;;;;;;;;;4995624;28;20357;-48
2023/11/26 08:13:37;;;;;;;;;;;;;;;;;;5013865;28;19964;-48
2023/11/26 08:16:07;;;;;;;;;;;;;;;;;;5021459;28;20317;-48
2023/11/26 08:18:35;;;;;;;;;;;;;;;;;;5011460;28;19909;-47
2023/11/26 08:21:04;;;;;;;;;;;;;;;;;;5013251;28;19963;-47
2023/11/26 08:23:30;;;;;;;;;;;;;;;;;;4979359;28;19921;-47
2023/11/26 08:25:58;;;;;;;;;;;;;;;;;;5013111;28;19967;-47
2023/11/26 08:28:28;;;;;;;;;;;;;;;;;;4995881;28;19975;-48
2023/11/26 08:30:55;;;;;;;;;;;;;;;;;;5013182;28;19909;-48
2023/11/26 08:33:22;;;;;;;;;;;;;;;;;;4995835;28;19916;-46
2023/11/26 08:35:56;;;;;;;;;;;;;;;;;;5012965;28;19909;-47
2023/11/26 08:38:24;;;;;;;;;;;;;;;;;;5013653;28;20353;-47
2023/11/26 08:40:50;;;;;;;;;;;;;;;;;;5012660;28;20293;-47
2023/11/26 08:43:19;;;;;;;;;;;;;;;;;;4995713;28;19917;-48
2023/11/26 08:45:45;;;;;;;;;;;;;;;;;;5012990;28;19909;-48
2023/11/26 08:48:13;;;;;;;;;;;;;;;;;;5013480;28;19910;-46
2023/11/26 08:50:39;;;;;;;;;;;;;;;;;;5020261;28;19913;-47
2023/11/26 08:53:09;;;;;;;;;;;;;;;;;;5022047;28;19913;-47
2023/11/26 08:55:35;;;;;;;;;;;;;;;;;;4990103;28;19924;-48
2023/11/26 08:58:01;;;;;;;;;;;;;;;;;;5012748;28;19909;-48
2023/11/26 09:00:27;;;;;;;;;;;;;;;;;;5013162;28;20459;-48
2023/11/26 09:02:53;;;;;;;;;;;;;;;;;;4995028;28;19991;-49
2023/11/26 09:05:21;;;;;;;;;;;;;;;;;;4995319;28;19909;-49
2023/11/26 09:07:47;;;;;;;;;;;;;;;;;;4995392;28;19909;-48
2023/11/26 09:10:13;;;;;;;;;;;;;;;;;;4995384;28;20011;-47
2023/11/26 09:12:39;;;;;;;;;;;;;;;;;;5012656;28;19909;-49
2023/11/26 09:15:07;;;;;;;;;;;;;;;;;;4995061;28;19975;-48
2023/11/26 09:17:33;;;;;;;;;;;;;;;;;;5012773;28;20017;-48
2023/11/26 09:20:00;;;;;;;;;;;;;;;;;;5012732;28;19909;-47
2023/11/26 09:22:26;;;;;;;;;;;;;;;;;;5018409;28;20346;-47
2023/11/26 09:24:52;;;;;;;;;;;;;;;;;;5031886;28;19920;-48
2023/11/26 09:27:18;;;;;;;;;;;;;;;;;;5031524;28;19995;-47
2023/11/26 09:29:44;;;;;;;;;;;;;;;;;;5015108;28;20276;-48
2023/11/26 09:32:10;;;;;;;;;;;;;;;;;;5032086;28;19908;-47
2023/11/26 09:34:36;;;;;;;;;;;;;;;;;;5014708;28;19912;-48
2023/11/26 09:37:06;;;;;;;;;;;;;;;;;;5014421;28;20007;-49
2023/11/26 09:39:33;;;;;;;;;;;;;;;;;;5032181;28;19909;-49
2023/11/26 09:41:59;;;;;;;;;;;;;;;;;;5031924;28;20432;-47
2023/11/26 09:44:26;;;;;;;;;;;;;;;;;;5032186;28;19909;-47
2023/11/26 09:46:52;;;;;;;;;;;;;;;;;;5032350;28;19955;-48
2023/11/26 09:49:18;;;;;;;;;;;;;;;;;;5032209;28;19913;-49
2023/11/26 09:51:44;;;;;;;;;;;;;;;;;;5032011;28;19909;-48
2023/11/26 09:54:10;;;;;;;;;;;;;;;;;;5031925;28;19911;-48
2023/11/26 09:56:36;;;;;;;;;;;;;;;;;;5032060;28;19909;-48
2023/11/26 09:59:05;;;;;;;;;;;;;;;;;;5031997;28;19905;-49
2023/11/26 10:01:31;;;;;;;;;;;;;;;;;;5031501;28;19909;-47
2023/11/26 10:03:57;;;;;;;;;;;;;;;;;;5015399;28;19920;-47
2023/11/26 10:06:23;;;;;;;;;;;;;;;;;;5035898;28;20387;-47
2023/11/26 10:08:49;;;;;;;;;;;;;;;;;;5036036;28;19920;-47
2023/11/26 10:11:15;;;;;;;;;;;;;;;;;;5017939;28;19909;-47
2023/11/26 10:13:41;;;;;;;;;;;;;;;;;;5018008;28;19979;-47
2023/11/26 10:16:07;;;;;;;;;;;;;;;;;;5035766;28;19913;-47
2023/11/26 10:18:33;;;;;;;;;;;;;;;;;;5035763;28;20383;-47
2023/11/26 10:20:59;;;;;;;;;;;;;;;;;;5018158;28;20295;-49
2023/11/26 10:23:25;;;;;;;;;;;;;;;;;;5035728;28;19913;-47
2023/11/26 10:25:52;;;;;;;;;;;;;;;;;;5035796;28;20299;-47
2023/11/26 10:28:18;;;;;;;;;;;;;;;;;;5035614;28;19913;-47
2023/11/26 10:30:44;;;;;;;;;;;;;;;;;;5035321;28;19924;-48
2023/11/26 10:33:10;;;;;;;;;;;;;;;;;;5017837;28;19905;-47
2023/11/26 10:35:37;;;;;;;;;;;;;;;;;;5035289;28;19908;-47
2023/11/26 10:38:03;;;;;;;;;;;;;;;;;;5035407;28;20307;-47
2023/11/26 10:40:29;;;;;;;;;;;;;;;;;;5017745;28;20276;-47
2023/11/26 10:42:55;;;;;;;;;;;;;;;;;;5035124;28;20398;-48
2023/11/26 10:45:24;;;;;;;;;;;;;;;;;;5035144;28;20338;-51
2023/11/26 10:47:50;;;;;;;;;;;;;;;;;;5035177;28;19909;-47
2023/11/26 10:50:16;;;;;;;;;;;;;;;;;;5035245;28;20276;-47
2023/11/26 10:52:42;;;;;;;;;;;;;;;;;;5035143;28;19909;-47
2023/11/26 10:55:08;;;;;;;;;;;;;;;;;;5017311;28;19913;-47
2023/11/26 10:57:34;;;;;;;;;;;;;;;;;;5035004;28;20402;-48
2023/11/26 11:00:00;;;;;;;;;;;;;;;;;;5034987;28;20350;-48
2023/11/26 11:02:26;;;;;;;;;;;;;;;;;;5034740;28;19920;-48
2023/11/26 11:04:52;;;;;;;;;;;;;;;;;;5000790;28;19909;-48
2023/11/26 11:07:18;;;;;;;;;;;;;;;;;;5034796;28;19917;-47
2023/11/26 11:09:44;;;;;;;;;;;;;;;;;;5034811;28;19908;-48
2023/11/26 11:12:10;;;;;;;;;;;;;;;;;;5034634;28;19905;-47
2023/11/26 11:14:37;;;;;;;;;;;;;;;;;;5016807;28;19909;-47
2023/11/26 11:17:03;;;;;;;;;;;;;;;;;;5034049;28;20298;-47
2023/11/26 11:19:29;;;;;;;;;;;;;;;;;;5034778;28;19959;-46
2023/11/26 11:21:55;;;;;;;;;;;;;;;;;;5034419;28;19909;-48
2023/11/26 11:24:21;;;;;;;;;;;;;;;;;;5022563;28;19919;-48
2023/11/26 11:26:47;;;;;;;;;;;;;;;;;;5054585;28;19944;-47
2023/11/26 11:29:13;;;;;;;;;;;;;;;;;;5054624;28;19909;-48
2023/11/26 11:31:39;;;;;;;;;;;;;;;;;;5052961;28;20271;-47
2023/11/26 11:34:05;;;;;;;;;;;;;;;;;;5053060;28;19913;-47
2023/11/26 11:36:31;;;;;;;;;;;;;;;;;;5054333;28;19904;-47
2023/11/26 11:38:57;;;;;;;;;;;;;;;;;;5054385;28;19959;-47
2023/11/26 11:41:24;;;;;;;;;;;;;;;;;;5052725;28;19909;-48
2023/11/26 11:43:50;;;;;;;;;;;;;;;;;;5054187;28;20015;-48
2023/11/26 11:46:16;;;;;;;;;;;;;;;;;;5054151;28;19909;-48
2023/11/26 11:48:42;;;;;;;;;;;;;;;;;;5054131;28;19913;-48
2023/11/26 11:51:08;;;;;;;;;;;;;;;;;;5052608;28;20003;-47
2023/11/26 11:53:34;;;;;;;;;;;;;;;;;;5054063;28;20439;-49
2023/11/26 11:56:00;;;;;;;;;;;;;;;;;;5053833;28;19944;-48
2023/11/26 11:58:28;;;;;;;;;;;;;;;;;;5052778;28;19909;-49
2023/11/26 12:00:54;;;;;;;;;;;;;;;;;;5053576;28;19908;-48
2023/11/26 12:03:20;;;;;;;;;;;;;;;;;;5053777;28;19912;-48
2023/11/26 12:05:46;;;;;;;;;;;;;;;;;;5054045;28;19955;-48
2023/11/26 12:08:12;;;;;;;;;;;;;;;;;;5052514;28;20278;-50
2023/11/26 12:10:38;;;;;;;;;;;;;;;;;;5053481;28;19908;-48
2023/11/26 12:13:05;;;;;;;;;;;;;;;;;;5053546;28;19908;-48
2023/11/26 12:15:31;;;;;;;;;;;;;;;;;;5052229;28;19908;-46
2023/11/26 12:17:57;;;;;;;;;;;;;;;;;;5053706;28;19913;-48
2023/11/26 12:20:23;;;;;;;;;;;;;;;;;;5053638;28;19909;-49
2023/11/26 12:22:50;;;;;;;;;;;;;;;;;;5052011;28;19920;-49
2023/11/26 12:25:21;;;;;;;;;;;;;;;;;;5041561;28;19924;-50
2023/11/26 12:27:47;;;;;;;;;;;;;;;;;;5033647;28;19919;-48
2023/11/26 12:30:13;;;;;;;;;;;;;;;;;;5033339;28;19905;-49
2023/11/26 12:32:39;;;;;;;;;;;;;;;;;;5033144;28;20394;-48
2023/11/26 12:35:05;;;;;;;;;;;;;;;;;;5033152;28;19963;-48
2023/11/26 12:37:31;;;;;;;;;;;;;;;;;;5015488;28;19959;-50
2023/11/26 12:39:58;;;;;;;;;;;;;;;;;;5033262;28;19917;-47
2023/11/26 12:42:26;;;;;;;;;;;;;;;;;;5032882;28;19925;-46
2023/11/26 12:44:52;;;;;;;;;;;;;;;;;;5033117;28;19909;-47
2023/11/26 12:47:18;;;;;;;;;;;;;;;;;;5033006;28;19917;-47
2023/11/26 12:49:44;;;;;;;;;;;;;;;;;;5032984;28;19908;-47
2023/11/26 12:52:10;;;;;;;;;;;;;;;;;;5015202;28;19916;-46
2023/11/26 12:54:36;;;;;;;;;;;;;;;;;;5032787;28;19960;-47
2023/11/26 12:57:03;;;;;;;;;;;;;;;;;;5015197;28;19904;-46
2023/11/26 12:59:29;;;;;;;;;;;;;;;;;;5032893;28;19909;-47
2023/11/26 13:01:55;;;;;;;;;;;;;;;;;;5015095;28;20299;-47
2023/11/26 13:04:21;;;;;;;;;;;;;;;;;;5014869;28;19996;-48
2023/11/26 13:06:47;;;;;;;;;;;;;;;;;;5015168;28;19923;-48
2023/11/26 13:09:13;;;;;;;;;;;;;;;;;;5032676;28;20026;-47
2023/11/26 13:11:40;;;;;;;;;;;;;;;;;;5032452;28;19948;-48
2023/11/26 13:14:07;;;;;;;;;;;;;;;;;;5032710;28;19909;-49
2023/11/26 13:16:33;;;;;;;;;;;;;;;;;;5032588;28;19909;-50
2023/11/26 13:18:59;;;;;;;;;;;;;;;;;;5014815;28;19909;-46
2023/11/26 13:21:29;;;;;;;;;;;;;;;;;;5032249;28;19909;-47
2023/11/26 13:23:55;;;;;;;;;;;;;;;;;;5014512;28;19912;-48
2023/11/26 13:26:21;;;;;;;;;;;;;;;;;;5014800;28;20008;-47
2023/11/26 13:28:47;;;;;;;;;;;;;;;;;;5032469;28;19909;-49
2023/11/26 13:31:13;;;;;;;;;;;;;;;;;;5032291;28;19909;-47
2023/11/26 13:33:39;;;;;;;;;;;;;;;;;;5032293;28;20422;-47
2023/11/26 13:36:05;;;;;;;;;;;;;;;;;;5014482;28;20363;-46
2023/11/26 13:38:31;;;;;;;;;;;;;;;;;;5031942;28;20423;-47
2023/11/26 13:40:57;;;;;;;;;;;;;;;;;;5032077;28;20398;-48
2023/11/26 13:43:24;;;;;;;;;;;;;;;;;;5032178;28;19913;-47
2023/11/26 13:45:50;;;;;;;;;;;;;;;;;;5032135;28;20395;-47
2023/11/26 13:48:16;;;;;;;;;;;;;;;;;;5014346;28;19988;-47
2023/11/26 13:50:42;;;;;;;;;;;;;;;;;;5031587;28;19909;-47
2023/11/26 13:53:09;;;;;;;;;;;;;;;;;;5011376;28;19936;-49
2023/11/26 13:55:35;;;;;;;;;;;;;;;;;;5012042;28;19956;-47
2023/11/26 13:58:01;;;;;;;;;;;;;;;;;;5012293;28;19909;-49
2023/11/26 14:00:27;;;;;;;;;;;;;;;;;;4994593;28;19913;-49
2023/11/26 14:02:53;;;;;;;;;;;;;;;;;;4994069;28;19914;-47
2023/11/26 14:05:20;;;;;;;;;;;;;;;;;;5011786;28;19909;-47
2023/11/26 14:07:46;;;;;;;;;;;;;;;;;;5009981;28;19924;-46
2023/11/26 14:10:16;;;;;;;;;;;;;;;;;;5010748;28;19914;-46
2023/11/26 14:12:42;;;;;;;;;;;;;;;;;;5012039;28;20291;-46
2023/11/26 14:15:11;;;;;;;;;;;;;;;;;;4986628;28;19917;-47
2023/11/26 14:17:37;;;;;;;;;;;;;;;;;;5009851;28;19909;-45
2023/11/26 14:20:04;;;;;;;;;;;;;;;;;;4994133;28;19980;-47
2023/11/26 14:22:30;;;;;;;;;;;;;;;;;;4994032;28;19913;-49
2023/11/26 14:24:56;;;;;;;;;;;;;;;;;;5011707;28;19968;-46
2023/11/26 14:27:22;;;;;;;;;;;;;;;;;;5011927;28;19909;-46
2023/11/26 14:29:48;;;;;;;;;;;;;;;;;;5011925;28;20446;-46
2023/11/26 14:32:14;;;;;;;;;;;;;;;;;;5011674;28;19917;-49
2023/11/26 14:34:40;;;;;;;;;;;;;;;;;;4994209;28;19963;-47
2023/11/26 14:37:10;;;;;;;;;;;;;;;;;;5011866;28;19906;-46
2023/11/26 14:39:36;;;;;;;;;;;;;;;;;;5011809;28;20398;-46
2023/11/26 14:42:02;;;;;;;;;;;;;;;;;;5011604;28;19905;-47
2023/11/26 14:44:29;;;;;;;;;;;;;;;;;;5011753;28;19921;-47
2023/11/26 14:46:55;;;;;;;;;;;;;;;;;;5011707;28;20017;-47
2023/11/26 14:49:21;;;;;;;;;;;;;;;;;;5022254;28;20013;-47
2023/11/26 14:51:47;;;;;;;;;;;;;;;;;;5000683;28;19909;-48
2023/11/26 14:54:13;;;;;;;;;;;;;;;;;;5015414;28;20131;-46
2023/11/26 14:56:39;;;;;;;;;;;;;;;;;;5020256;28;20489;-47
2023/11/26 14:59:05;;;;;;;;;;;;;;;;;;5013856;28;19909;-48
2023/11/26 15:01:31;;;;;;;;;;;;;;;;;;5033128;28;20433;-48
2023/11/26 15:03:57;;;;;;;;;;;;;;;;;;5016177;28;20049;-51
2023/11/26 15:06:23;;;;;;;;;;;;;;;;;;5014980;28;19917;-49
2023/11/26 15:08:49;;;;;;;;;;;;;;;;;;5015148;28;19917;-47
2023/11/26 15:11:18;;;;;;;;;;;;;;;;;;5014432;28;19912;-50
2023/11/26 15:13:45;;;;;;;;;;;;;;;;;;5014714;28;19910;-47
2023/11/26 15:16:11;;;;;;;;;;;;;;;;;;5014874;28;19940;-47
2023/11/26 15:18:37;;;;;;;;;;;;;;;;;;5014838;28;19905;-47
2023/11/26 15:21:03;;;;;;;;;;;;;;;;;;4999436;28;20352;-47
2023/11/26 15:23:29;;;;;;;;;;;;;;;;;;5004704;28;20375;-47
2023/11/26 15:25:56;;;;;;;;;;;;;;;;;;5024549;28;19920;-47
2023/11/26 15:28:22;;;;;;;;;;;;;;;;;;5014861;28;19944;-50
2023/11/26 15:30:49;;;;;;;;;;;;;;;;;;5030800;28;19904;-48
2023/11/26 15:33:15;;;;;;;;;;;;;;;;;;5034395;28;19909;-47
2023/11/26 15:35:41;;;;;;;;;;;;;;;;;;5016513;28;19908;-47
2023/11/26 15:38:08;;;;;;;;;;;;;;;;;;5034370;28;19999;-47
2023/11/26 15:40:34;;;;;;;;;;;;;;;;;;5034146;28;19909;-48
2023/11/26 15:43:00;;;;;;;;;;;;;;;;;;5017542;28;20197;-48
2023/11/26 15:45:26;;;;;;;;;;;;;;;;;;4996769;28;19909;-47
2023/11/26 15:47:53;;;;;;;;;;;;;;;;;;5014224;28;20391;-47
2023/11/26 15:50:21;;;;;;;;;;;;;;;;;;5014537;28;19913;-47
2023/11/26 15:52:47;;;;;;;;;;;;;;;;;;5014058;28;20019;-47
2023/11/26 15:55:13;;;;;;;;;;;;;;;;;;5015289;28;19909;-47
2023/11/26 15:57:39;;;;;;;;;;;;;;;;;;5014263;28;19972;-47
2023/11/26 16:00:06;;;;;;;;;;;;;;;;;;5023544;28;20395;-47
2023/11/26 16:02:38;;;;;;;;;;;;;;;;;;5018478;28;19926;-47
2023/11/26 16:05:06;;;;;;;;;;;;;;;;;;5001682;28;19913;-49
2023/11/26 16:07:32;;;;;;;;;;;;;;;;;;5013855;28;19944;-47
2023/11/26 16:09:58;;;;;;;;;;;;;;;;;;5002263;28;20479;-47
2023/11/26 16:12:24;;;;;;;;;;;;;;;;;;5012154;28;19977;-47
2023/11/26 16:14:51;;;;;;;;;;;;;;;;;;5015807;28;20004;-47
2023/11/26 16:17:17;;;;;;;;;;;;;;;;;;5016013;28;19913;-48
2023/11/26 16:19:44;;;;;;;;;;;;;;;;;;5012171;28;19952;-47
2023/11/26 16:22:10;;;;;;;;;;;;;;;;;;5011897;28;19917;-48
2023/11/26 16:24:36;;;;;;;;;;;;;;;;;;5011968;28;19917;-47
2023/11/26 16:27:03;;;;;;;;;;;;;;;;;;5013099;28;20016;-48
2023/11/26 16:29:30;;;;;;;;;;;;;;;;;;5013099;28;19964;-47
2023/11/26 16:31:56;;;;;;;;;;;;;;;;;;5006824;28;19917;-47
2023/11/26 16:34:23;;;;;;;;;;;;;;;;;;5017714;28;19905;-47
2023/11/26 16:36:50;;;;;;;;;;;;;;;;;;5020898;28;19936;-48
2023/11/26 16:39:16;;;;;;;;;;;;;;;;;;5019463;28;19914;-47
2023/11/26 16:41:42;;;;;;;;;;;;;;;;;;5024238;28;19955;-49